sensor_id;sensor_type;location;lat;lon;timestamp;temperature;humidity
44627;DHT22;30333;52.192;8.834;2023-07-13T00:03:31;16.60;99.90
44627;DHT22;30333;52.192;8.834;2023-07-13T00:06:00;16.60;99.90
44627;DHT22;30333;52.192;8.834;2023-07-13T00:08:26;16.40;99.90
44627;DHT22;30333;52.192;8.834;2023-07-13T00:15:47;16.40;99.90
44627;DHT22;30333;52.192;8.834;2023-07-13T00:18:13;16.40;99.90
44627;DHT22;30333;52.192;8.834;2023-07-13T00:23:06;16.40;99.90
44627;DHT22;30333;52.192;8.834;2023-07-13T00:30:24;16.20;99.90
44627;DHT22;30333;52.192;8.834;2023-07-13T00:32:51;16.20;99.90
44627;DHT22;30333;52.192;8.834;2023-07-13T00:35:16;16.20;99.90
44627;DHT22;30333;52.192;8.834;2023-07-13T00:37:42;16.20;99.90
44627;DHT22;30333;52.192;8.834;2023-07-13T00:40:10;16.20;99.90
44627;DHT22;30333;52.192;8.834;2023-07-13T00:42:36;16.20;99.90
44627;DHT22;30333;52.192;8.834;2023-07-13T00:47:54;16.10;99.90
44627;DHT22;30333;52.192;8.834;2023-07-13T00:50:21;16.10;99.90
44627;DHT22;30333;52.192;8.834;2023-07-13T00:52:52;16.10;99.90
44627;DHT22;30333;52.192;8.834;2023-07-13T00:55:18;16.00;99.90
44627;DHT22;30333;52.192;8.834;2023-07-13T00:57:46;16.10;99.90
44627;DHT22;30333;52.192;8.834;2023-07-13T01:00:12;16.00;99.90
44627;DHT22;30333;52.192;8.834;2023-07-13T01:02:44;16.00;99.90
44627;DHT22;30333;52.192;8.834;2023-07-13T01:05:15;16.00;99.90
44627;DHT22;30333;52.192;8.834;2023-07-13T01:07:42;16.00;99.90
44627;DHT22;30333;52.192;8.834;2023-07-13T01:10:09;16.00;99.90
44627;DHT22;30333;52.192;8.834;2023-07-13T01:15:02;16.00;99.90
44627;DHT22;30333;52.192;8.834;2023-07-13T01:17:29;15.90;99.90
44627;DHT22;30333;52.192;8.834;2023-07-13T01:19:55;15.90;99.90
44627;DHT22;30333;52.192;8.834;2023-07-13T01:22:20;15.90;99.90
44627;DHT22;30333;52.192;8.834;2023-07-13T01:24:53;15.90;99.90
44627;DHT22;30333;52.192;8.834;2023-07-13T01:27:25;15.90;99.90
44627;DHT22;30333;52.192;8.834;2023-07-13T01:29:52;16.00;99.90
44627;DHT22;30333;52.192;8.834;2023-07-13T01:32:22;16.00;99.90
44627;DHT22;30333;52.192;8.834;2023-07-13T01:34:50;16.00;99.90
44627;DHT22;30333;52.192;8.834;2023-07-13T01:37:16;15.90;99.90
44627;DHT22;30333;52.192;8.834;2023-07-13T01:47:01;16.00;99.90
44627;DHT22;30333;52.192;8.834;2023-07-13T01:49:27;16.00;99.90
44627;DHT22;30333;52.192;8.834;2023-07-13T01:54:18;16.10;99.90
44627;DHT22;30333;52.192;8.834;2023-07-13T01:59:10;16.20;99.90
44627;DHT22;30333;52.192;8.834;2023-07-13T02:04:02;16.20;99.90
44627;DHT22;30333;52.192;8.834;2023-07-13T02:06:28;16.20;99.90
44627;DHT22;30333;52.192;8.834;2023-07-13T02:21:03;16.50;99.90
44627;DHT22;30333;52.192;8.834;2023-07-13T02:26:00;16.50;99.90
44627;DHT22;30333;52.192;8.834;2023-07-13T04:06:45;15.50;99.90
44627;DHT22;30333;52.192;8.834;2023-07-13T04:11:36;15.50;99.90
44627;DHT22;30333;52.192;8.834;2023-07-13T04:14:02;15.50;99.90
44627;DHT22;30333;52.192;8.834;2023-07-13T04:18:54;15.40;99.90
44627;DHT22;30333;52.192;8.834;2023-07-13T04:21:25;15.40;99.90
44627;DHT22;30333;52.192;8.834;2023-07-13T04:23:50;15.40;99.90
44627;DHT22;30333;52.192;8.834;2023-07-13T04:28:42;15.40;99.90
44627;DHT22;30333;52.192;8.834;2023-07-13T04:31:07;15.50;99.90
44627;DHT22;30333;52.192;8.834;2023-07-13T04:33:33;15.50;99.90
44627;DHT22;30333;52.192;8.834;2023-07-13T04:35:59;15.70;99.90
44627;DHT22;30333;52.192;8.834;2023-07-13T04:38:29;15.80;99.90
44627;DHT22;30333;52.192;8.834;2023-07-13T04:40:57;15.90;99.90
44627;DHT22;30333;52.192;8.834;2023-07-13T04:43:25;16.00;99.90
44627;DHT22;30333;52.192;8.834;2023-07-13T04:48:17;16.30;99.90
44627;DHT22;30333;52.192;8.834;2023-07-13T04:53:09;16.50;99.90
44627;DHT22;30333;52.192;8.834;2023-07-13T04:55:36;16.40;99.90
44627;DHT22;30333;52.192;8.834;2023-07-13T05:00:28;16.40;99.90
44627;DHT22;30333;52.192;8.834;2023-07-13T05:02:58;16.40;99.90
44627;DHT22;30333;52.192;8.834;2023-07-13T05:05:25;16.30;99.90
44627;DHT22;30333;52.192;8.834;2023-07-13T05:07:52;16.20;99.90
44627;DHT22;30333;52.192;8.834;2023-07-13T05:10:17;16.20;99.90
44627;DHT22;30333;52.192;8.834;2023-07-13T05:15:09;16.20;99.90
44627;DHT22;30333;52.192;8.834;2023-07-13T05:20:01;16.20;99.90
44627;DHT22;30333;52.192;8.834;2023-07-13T05:27:18;16.10;99.90
44627;DHT22;30333;52.192;8.834;2023-07-13T05:32:10;16.30;99.90
44627;DHT22;30333;52.192;8.834;2023-07-13T05:34:35;16.30;99.90
44627;DHT22;30333;52.192;8.834;2023-07-13T05:39:27;16.50;99.90
44627;DHT22;30333;52.192;8.834;2023-07-13T05:49:10;16.40;99.90
44627;DHT22;30333;52.192;8.834;2023-07-13T05:54:02;16.50;99.90
44627;DHT22;30333;52.192;8.834;2023-07-13T06:03:47;16.60;99.90
44627;DHT22;30333;52.192;8.834;2023-07-13T06:08:39;16.70;99.90
44627;DHT22;30333;52.192;8.834;2023-07-13T06:11:08;16.70;99.90
44627;DHT22;30333;52.192;8.834;2023-07-13T06:16:02;16.80;99.90
44627;DHT22;30333;52.192;8.834;2023-07-13T06:18:30;16.80;99.90
44627;DHT22;30333;52.192;8.834;2023-07-13T06:20:56;16.70;99.90
44627;DHT22;30333;52.192;8.834;2023-07-13T06:25:48;16.90;99.90
44627;DHT22;30333;52.192;8.834;2023-07-13T06:28:13;16.90;99.90
44627;DHT22;30333;52.192;8.834;2023-07-13T06:33:05;17.10;99.90
44627;DHT22;30333;52.192;8.834;2023-07-13T06:37:57;17.20;99.90
44627;DHT22;30333;52.192;8.834;2023-07-13T06:40:22;17.20;99.90
44627;DHT22;30333;52.192;8.834;2023-07-13T06:47:39;17.40;99.90
44627;DHT22;30333;52.192;8.834;2023-07-13T06:50:05;17.50;99.90
44627;DHT22;30333;52.192;8.834;2023-07-13T06:52:31;17.50;99.90
44627;DHT22;30333;52.192;8.834;2023-07-13T06:54:56;17.60;99.90
44627;DHT22;30333;52.192;8.834;2023-07-13T06:57:22;17.70;99.90
44627;DHT22;30333;52.192;8.834;2023-07-13T07:02:13;17.90;99.90
44627;DHT22;30333;52.192;8.834;2023-07-13T07:07:05;17.80;99.90
44627;DHT22;30333;52.192;8.834;2023-07-13T07:09:30;17.80;99.90
44627;DHT22;30333;52.192;8.834;2023-07-13T07:14:23;18.00;99.90
44627;DHT22;30333;52.192;8.834;2023-07-13T07:16:49;18.00;99.90
44627;DHT22;30333;52.192;8.834;2023-07-13T07:19:15;18.00;99.90
44627;DHT22;30333;52.192;8.834;2023-07-13T07:21:41;18.00;99.90
44627;DHT22;30333;52.192;8.834;2023-07-13T07:24:06;18.20;99.90
44627;DHT22;30333;52.192;8.834;2023-07-13T07:26:32;18.30;99.90
44627;DHT22;30333;52.192;8.834;2023-07-13T07:28:58;18.20;99.90
44627;DHT22;30333;52.192;8.834;2023-07-13T07:31:23;18.20;99.90
44627;DHT22;30333;52.192;8.834;2023-07-13T07:33:49;18.50;99.90
44627;DHT22;30333;52.192;8.834;2023-07-13T07:36:15;18.60;99.90
44627;DHT22;30333;52.192;8.834;2023-07-13T07:38:41;18.70;99.90
44627;DHT22;30333;52.192;8.834;2023-07-13T07:43:33;18.90;99.90
44627;DHT22;30333;52.192;8.834;2023-07-13T07:45:58;19.00;99.90
44627;DHT22;30333;52.192;8.834;2023-07-13T07:48:24;19.00;99.90
44627;DHT22;30333;52.192;8.834;2023-07-13T07:50:49;18.90;99.90
44627;DHT22;30333;52.192;8.834;2023-07-13T07:53:15;18.90;99.90
44627;DHT22;30333;52.192;8.834;2023-07-13T08:00:33;19.10;99.90
44627;DHT22;30333;52.192;8.834;2023-07-13T08:02:59;19.10;99.90
44627;DHT22;30333;52.192;8.834;2023-07-13T08:05:25;19.20;99.90
44627;DHT22;30333;52.192;8.834;2023-07-13T08:07:51;19.40;99.90
44627;DHT22;30333;52.192;8.834;2023-07-13T08:12:43;19.30;99.90
44627;DHT22;30333;52.192;8.834;2023-07-13T08:15:14;19.40;99.90
44627;DHT22;30333;52.192;8.834;2023-07-13T08:17:40;19.60;99.90
44627;DHT22;30333;52.192;8.834;2023-07-13T08:20:06;19.40;99.90
44627;DHT22;30333;52.192;8.834;2023-07-13T08:22:32;19.40;99.90
44627;DHT22;30333;52.192;8.834;2023-07-13T08:24:59;19.50;99.90
44627;DHT22;30333;52.192;8.834;2023-07-13T08:27:25;19.70;99.90
44627;DHT22;30333;52.192;8.834;2023-07-13T08:29:51;20.60;99.90
44627;DHT22;30333;52.192;8.834;2023-07-13T08:32:18;19.80;99.90
44627;DHT22;30333;52.192;8.834;2023-07-13T08:34:44;19.80;99.90
44627;DHT22;30333;52.192;8.834;2023-07-13T08:37:10;20.00;99.90
44627;DHT22;30333;52.192;8.834;2023-07-13T08:42:11;19.90;99.90
44627;DHT22;30333;52.192;8.834;2023-07-13T08:47:19;19.80;99.90
44627;DHT22;30333;52.192;8.834;2023-07-13T08:49:46;20.00;99.90
44627;DHT22;30333;52.192;8.834;2023-07-13T08:54:55;20.20;99.90
44627;DHT22;30333;52.192;8.834;2023-07-13T08:57:26;20.30;99.90
44627;DHT22;30333;52.192;8.834;2023-07-13T08:59:55;20.50;99.90
44627;DHT22;30333;52.192;8.834;2023-07-13T09:02:39;20.50;99.90
44627;DHT22;30333;52.192;8.834;2023-07-13T09:05:14;20.40;99.90
44627;DHT22;30333;52.192;8.834;2023-07-13T09:07:55;20.70;99.90
44627;DHT22;30333;52.192;8.834;2023-07-13T09:10:48;20.70;99.90
44627;DHT22;30333;52.192;8.834;2023-07-13T09:16:01;20.80;99.90
44627;DHT22;30333;52.192;8.834;2023-07-13T09:18:35;21.20;99.90
44627;DHT22;30333;52.192;8.834;2023-07-13T09:21:05;21.10;99.90
44627;DHT22;30333;52.192;8.834;2023-07-13T09:23:35;21.40;99.90
44627;DHT22;30333;52.192;8.834;2023-07-13T09:26:07;21.40;99.90
44627;DHT22;30333;52.192;8.834;2023-07-13T09:28:42;21.20;99.90
44627;DHT22;30333;52.192;8.834;2023-07-13T09:31:23;21.00;99.90
44627;DHT22;30333;52.192;8.834;2023-07-13T09:33:49;21.10;99.90
44627;DHT22;30333;52.192;8.834;2023-07-13T09:36:25;21.50;99.90
44627;DHT22;30333;52.192;8.834;2023-07-13T09:39:05;21.50;99.90
44627;DHT22;30333;52.192;8.834;2023-07-13T09:41:45;21.60;99.90
44627;DHT22;30333;52.192;8.834;2023-07-13T09:44:15;21.80;99.90
44627;DHT22;30333;52.192;8.834;2023-07-13T09:46:52;22.20;99.90
44627;DHT22;30333;52.192;8.834;2023-07-13T09:49:26;21.70;99.90
44627;DHT22;30333;52.192;8.834;2023-07-13T09:52:03;21.70;99.90
44627;DHT22;30333;52.192;8.834;2023-07-13T09:54:33;21.60;99.90
44627;DHT22;30333;52.192;8.834;2023-07-13T09:57:00;21.40;99.80
44627;DHT22;30333;52.192;8.834;2023-07-13T09:59:43;21.50;99.70
44627;DHT22;30333;52.192;8.834;2023-07-13T10:02:46;21.40;99.10
44627;DHT22;30333;52.192;8.834;2023-07-13T10:05:13;21.60;99.90
44627;DHT22;30333;52.192;8.834;2023-07-13T10:07:44;21.70;99.90
44627;DHT22;30333;52.192;8.834;2023-07-13T10:10:18;22.90;99.90
44627;DHT22;30333;52.192;8.834;2023-07-13T10:12:46;22.40;99.10
44627;DHT22;30333;52.192;8.834;2023-07-13T10:15:22;22.10;98.60
44627;DHT22;30333;52.192;8.834;2023-07-13T10:17:49;21.90;98.10
44627;DHT22;30333;52.192;8.834;2023-07-13T10:20:15;21.80;98.30
44627;DHT22;30333;52.192;8.834;2023-07-13T10:25:19;21.80;99.50
44627;DHT22;30333;52.192;8.834;2023-07-13T10:27:46;22.20;99.00
44627;DHT22;30333;52.192;8.834;2023-07-13T10:32:49;22.40;99.30
44627;DHT22;30333;52.192;8.834;2023-07-13T10:35:17;23.10;99.00
44627;DHT22;30333;52.192;8.834;2023-07-13T10:38:10;23.40;97.80
44627;DHT22;30333;52.192;8.834;2023-07-13T10:40:45;23.60;97.00
44627;DHT22;30333;52.192;8.834;2023-07-13T10:43:37;23.60;96.80
44627;DHT22;30333;52.192;8.834;2023-07-13T10:46:05;23.50;96.30
44627;DHT22;30333;52.192;8.834;2023-07-13T10:48:33;23.30;95.00
44627;DHT22;30333;52.192;8.834;2023-07-13T10:51:00;23.20;95.20
44627;DHT22;30333;52.192;8.834;2023-07-13T10:53:32;22.80;94.90
44627;DHT22;30333;52.192;8.834;2023-07-13T10:56:00;22.50;95.50
44627;DHT22;30333;52.192;8.834;2023-07-13T10:58:39;22.50;95.80
44627;DHT22;30333;52.192;8.834;2023-07-13T11:03:56;23.30;96.80
44627;DHT22;30333;52.192;8.834;2023-07-13T11:08:59;23.60;96.60
44627;DHT22;30333;52.192;8.834;2023-07-13T11:18:48;23.40;95.30
44627;DHT22;30333;52.192;8.834;2023-07-13T11:23:51;24.00;96.40
44627;DHT22;30333;52.192;8.834;2023-07-13T11:29:33;23.90;96.60
44627;DHT22;30333;52.192;8.834;2023-07-13T11:32:25;24.00;95.60
44627;DHT22;30333;52.192;8.834;2023-07-13T11:34:53;24.10;95.90
44627;DHT22;30333;52.192;8.834;2023-07-13T11:37:19;24.30;95.90
44627;DHT22;30333;52.192;8.834;2023-07-13T11:39:46;25.80;95.90
44627;DHT22;30333;52.192;8.834;2023-07-13T11:42:16;26.90;95.40
44627;DHT22;30333;52.192;8.834;2023-07-13T11:44:45;26.20;95.80
44627;DHT22;30333;52.192;8.834;2023-07-13T11:47:16;24.30;95.30
44627;DHT22;30333;52.192;8.834;2023-07-13T11:49:53;23.80;95.20
44627;DHT22;30333;52.192;8.834;2023-07-13T11:52:32;23.40;95.20
44627;DHT22;30333;52.192;8.834;2023-07-13T11:55:00;23.40;95.40
44627;DHT22;30333;52.192;8.834;2023-07-13T11:57:33;22.70;95.40
44627;DHT22;30333;52.192;8.834;2023-07-13T12:00:03;22.60;95.50
44627;DHT22;30333;52.192;8.834;2023-07-13T12:02:43;22.50;95.70
44627;DHT22;30333;52.192;8.834;2023-07-13T12:05:14;22.90;96.40
44627;DHT22;30333;52.192;8.834;2023-07-13T12:07:40;23.10;95.70
44627;DHT22;30333;52.192;8.834;2023-07-13T12:12:35;23.50;94.30
44627;DHT22;30333;52.192;8.834;2023-07-13T12:15:06;24.20;93.50
44627;DHT22;30333;52.192;8.834;2023-07-13T12:17:34;23.40;93.60
44627;DHT22;30333;52.192;8.834;2023-07-13T12:20:03;23.40;94.80
44627;DHT22;30333;52.192;8.834;2023-07-13T12:22:32;23.60;93.90
44627;DHT22;30333;52.192;8.834;2023-07-13T12:24:59;23.60;94.80
44627;DHT22;30333;52.192;8.834;2023-07-13T12:27:27;23.30;98.20
44627;DHT22;30333;52.192;8.834;2023-07-13T12:29:59;23.70;96.80
44627;DHT22;30333;52.192;8.834;2023-07-13T12:32:26;25.80;97.50
44627;DHT22;30333;52.192;8.834;2023-07-13T12:35:15;24.40;96.20
44627;DHT22;30333;52.192;8.834;2023-07-13T12:37:42;24.60;95.10
44627;DHT22;30333;52.192;8.834;2023-07-13T12:40:17;24.50;95.20
44627;DHT22;30333;52.192;8.834;2023-07-13T12:42:49;24.10;91.70
44627;DHT22;30333;52.192;8.834;2023-07-13T12:47:55;24.20;92.80
44627;DHT22;30333;52.192;8.834;2023-07-13T12:50:30;24.50;94.00
44627;DHT22;30333;52.192;8.834;2023-07-13T12:53:01;25.60;94.40
44627;DHT22;30333;52.192;8.834;2023-07-13T12:55:29;24.30;92.70
44627;DHT22;30333;52.192;8.834;2023-07-13T12:57:59;24.20;92.80
44627;DHT22;30333;52.192;8.834;2023-07-13T13:02:56;24.10;93.60
44627;DHT22;30333;52.192;8.834;2023-07-13T13:05:22;24.30;94.30
44627;DHT22;30333;52.192;8.834;2023-07-13T13:12:42;23.70;95.10
44627;DHT22;30333;52.192;8.834;2023-07-13T13:15:09;23.70;94.90
44627;DHT22;30333;52.192;8.834;2023-07-13T13:17:37;23.70;93.40
44627;DHT22;30333;52.192;8.834;2023-07-13T13:20:14;24.30;95.30
44627;DHT22;30333;52.192;8.834;2023-07-13T13:22:41;24.00;96.30
44627;DHT22;30333;52.192;8.834;2023-07-13T13:25:10;24.30;95.80
44627;DHT22;30333;52.192;8.834;2023-07-13T13:27:36;24.60;91.30
44627;DHT22;30333;52.192;8.834;2023-07-13T13:30:02;26.20;92.10
44627;DHT22;30333;52.192;8.834;2023-07-13T13:32:28;24.80;88.60
44627;DHT22;30333;52.192;8.834;2023-07-13T13:34:53;24.60;90.10
44627;DHT22;30333;52.192;8.834;2023-07-13T13:37:21;24.20;90.20
44627;DHT22;30333;52.192;8.834;2023-07-13T13:39:48;24.50;90.60
44627;DHT22;30333;52.192;8.834;2023-07-13T13:42:14;23.90;92.60
44627;DHT22;30333;52.192;8.834;2023-07-13T13:44:40;23.40;93.90
44627;DHT22;30333;52.192;8.834;2023-07-13T13:47:27;23.00;94.90
44627;DHT22;30333;52.192;8.834;2023-07-13T13:49:54;22.00;94.70
44627;DHT22;30333;52.192;8.834;2023-07-13T14:02:21;18.90;99.30
44627;DHT22;30333;52.192;8.834;2023-07-13T14:04:52;18.20;99.90
44627;DHT22;30333;52.192;8.834;2023-07-13T14:17:22;17.30;99.90
44627;DHT22;30333;52.192;8.834;2023-07-13T14:19:50;17.30;99.90
44627;DHT22;30333;52.192;8.834;2023-07-13T14:22:17;16.70;99.90
44627;DHT22;30333;52.192;8.834;2023-07-13T14:24:43;16.50;99.90
44627;DHT22;30333;52.192;8.834;2023-07-13T14:27:10;17.00;99.90
44627;DHT22;30333;52.192;8.834;2023-07-13T14:29:36;16.90;99.90
44627;DHT22;30333;52.192;8.834;2023-07-13T14:32:02;17.40;99.90
44627;DHT22;30333;52.192;8.834;2023-07-13T14:34:27;17.80;99.90
44627;DHT22;30333;52.192;8.834;2023-07-13T14:36:53;18.30;99.90
44627;DHT22;30333;52.192;8.834;2023-07-13T14:39:22;18.80;99.90
44627;DHT22;30333;52.192;8.834;2023-07-13T14:41:56;18.80;99.90
44627;DHT22;30333;52.192;8.834;2023-07-13T14:44:26;18.80;99.90
44627;DHT22;30333;52.192;8.834;2023-07-13T14:46:54;19.10;99.90
44627;DHT22;30333;52.192;8.834;2023-07-13T14:52:01;18.90;99.90
44627;DHT22;30333;52.192;8.834;2023-07-13T14:54:28;19.20;99.90
44627;DHT22;30333;52.192;8.834;2023-07-13T14:59:19;19.10;99.90
44627;DHT22;30333;52.192;8.834;2023-07-13T15:01:46;18.40;99.90
44627;DHT22;30333;52.192;8.834;2023-07-13T15:04:12;18.40;99.90
44627;DHT22;30333;52.192;8.834;2023-07-13T15:09:20;18.50;99.90
44627;DHT22;30333;52.192;8.834;2023-07-13T15:14:12;18.00;99.90
44627;DHT22;30333;52.192;8.834;2023-07-13T15:16:37;17.60;99.90
44627;DHT22;30333;52.192;8.834;2023-07-13T15:19:03;17.50;99.90
44627;DHT22;30333;52.192;8.834;2023-07-13T15:21:29;20.00;99.90
44627;DHT22;30333;52.192;8.834;2023-07-13T15:24:00;17.60;99.90
44627;DHT22;30333;52.192;8.834;2023-07-13T15:26:26;17.50;99.90
44627;DHT22;30333;52.192;8.834;2023-07-13T15:31:22;17.40;99.90
44627;DHT22;30333;52.192;8.834;2023-07-13T15:33:49;17.30;99.90
44627;DHT22;30333;52.192;8.834;2023-07-13T15:36:16;17.20;99.90
44627;DHT22;30333;52.192;8.834;2023-07-13T15:38:42;17.20;99.90
44627;DHT22;30333;52.192;8.834;2023-07-13T15:41:27;19.10;99.90
44627;DHT22;30333;52.192;8.834;2023-07-13T15:43:56;17.20;99.90
44627;DHT22;30333;52.192;8.834;2023-07-13T15:46:26;17.10;99.90
44627;DHT22;30333;52.192;8.834;2023-07-13T15:48:52;17.60;99.90
44627;DHT22;30333;52.192;8.834;2023-07-13T15:51:26;17.00;99.90
44627;DHT22;30333;52.192;8.834;2023-07-13T15:53:58;17.50;99.90
44627;DHT22;30333;52.192;8.834;2023-07-13T15:56:27;16.80;99.90
44627;DHT22;30333;52.192;8.834;2023-07-13T15:58:54;16.90;99.90
44627;DHT22;30333;52.192;8.834;2023-07-13T16:01:20;16.90;99.90
44627;DHT22;30333;52.192;8.834;2023-07-13T16:03:46;17.00;99.90
44627;DHT22;30333;52.192;8.834;2023-07-13T16:06:28;17.10;99.90
44627;DHT22;30333;52.192;8.834;2023-07-13T16:08:54;17.20;99.90
44627;DHT22;30333;52.192;8.834;2023-07-13T16:11:25;17.20;99.90
44627;DHT22;30333;52.192;8.834;2023-07-13T16:13:52;19.50;99.90
44627;DHT22;30333;52.192;8.834;2023-07-13T16:16:27;17.70;99.90
44627;DHT22;30333;52.192;8.834;2023-07-13T16:19:02;17.70;99.90
44627;DHT22;30333;52.192;8.834;2023-07-13T16:21:35;17.80;99.90
44627;DHT22;30333;52.192;8.834;2023-07-13T16:24:03;17.80;99.90
44627;DHT22;30333;52.192;8.834;2023-07-13T16:26:37;18.00;99.90
44627;DHT22;30333;52.192;8.834;2023-07-13T16:29:26;18.00;99.90
44627;DHT22;30333;52.192;8.834;2023-07-13T16:32:02;18.10;99.90
44627;DHT22;30333;52.192;8.834;2023-07-13T16:34:29;18.30;99.90
44627;DHT22;30333;52.192;8.834;2023-07-13T16:36:55;18.50;99.90
44627;DHT22;30333;52.192;8.834;2023-07-13T16:52:18;19.60;99.90
44627;DHT22;30333;52.192;8.834;2023-07-13T16:54:47;20.00;99.90
44627;DHT22;30333;52.192;8.834;2023-07-13T16:57:17;20.30;99.90
44627;DHT22;30333;52.192;8.834;2023-07-13T16:59:44;20.40;99.90
44627;DHT22;30333;52.192;8.834;2023-07-13T17:02:37;20.60;99.90
44627;DHT22;30333;52.192;8.834;2023-07-13T17:05:10;20.50;99.90
44627;DHT22;30333;52.192;8.834;2023-07-13T17:07:36;20.50;99.90
44627;DHT22;30333;52.192;8.834;2023-07-13T17:14:54;20.30;99.90
44627;DHT22;30333;52.192;8.834;2023-07-13T17:17:28;20.10;99.90
44627;DHT22;30333;52.192;8.834;2023-07-13T17:19:54;20.10;99.90
44627;DHT22;30333;52.192;8.834;2023-07-13T17:24:46;20.20;99.90
44627;DHT22;30333;52.192;8.834;2023-07-13T17:27:14;20.30;99.90
44627;DHT22;30333;52.192;8.834;2023-07-13T17:29:40;21.60;99.90
44627;DHT22;30333;52.192;8.834;2023-07-13T17:32:13;20.50;99.90
44627;DHT22;30333;52.192;8.834;2023-07-13T17:34:40;20.70;99.90
44627;DHT22;30333;52.192;8.834;2023-07-13T17:37:13;20.40;99.90
44627;DHT22;30333;52.192;8.834;2023-07-13T17:39:40;20.40;99.90
44627;DHT22;30333;52.192;8.834;2023-07-13T17:44:32;20.10;99.90
44627;DHT22;30333;52.192;8.834;2023-07-13T17:49:25;19.30;99.90
44627;DHT22;30333;52.192;8.834;2023-07-13T17:51:57;19.30;99.90
44627;DHT22;30333;52.192;8.834;2023-07-13T17:54:23;19.20;99.90
44627;DHT22;30333;52.192;8.834;2023-07-13T17:56:51;18.90;99.90
44627;DHT22;30333;52.192;8.834;2023-07-13T17:59:16;19.10;99.90
44627;DHT22;30333;52.192;8.834;2023-07-13T18:01:43;19.00;99.90
44627;DHT22;30333;52.192;8.834;2023-07-13T18:04:11;19.10;99.90
44627;DHT22;30333;52.192;8.834;2023-07-13T18:06:40;21.40;99.90
44627;DHT22;30333;52.192;8.834;2023-07-13T18:09:22;18.90;99.90
44627;DHT22;30333;52.192;8.834;2023-07-13T18:14:14;18.80;99.90
44627;DHT22;30333;52.192;8.834;2023-07-13T18:16:42;18.50;99.90
44627;DHT22;30333;52.192;8.834;2023-07-13T18:21:50;18.40;99.90
44627;DHT22;30333;52.192;8.834;2023-07-13T18:24:16;18.20;99.90
44627;DHT22;30333;52.192;8.834;2023-07-13T18:26:42;18.20;99.90
44627;DHT22;30333;52.192;8.834;2023-07-13T18:31:35;18.20;99.90
44627;DHT22;30333;52.192;8.834;2023-07-13T18:36:28;18.00;99.90
44627;DHT22;30333;52.192;8.834;2023-07-13T18:38:54;18.00;99.90
44627;DHT22;30333;52.192;8.834;2023-07-13T18:41:21;18.00;99.90
44627;DHT22;30333;52.192;8.834;2023-07-13T18:43:48;17.90;99.90
44627;DHT22;30333;52.192;8.834;2023-07-13T18:46:23;17.80;99.90
44627;DHT22;30333;52.192;8.834;2023-07-13T18:48:51;17.80;99.90
44627;DHT22;30333;52.192;8.834;2023-07-13T18:51:16;17.90;99.90
44627;DHT22;30333;52.192;8.834;2023-07-13T18:56:08;17.90;99.90
44627;DHT22;30333;52.192;8.834;2023-07-13T19:01:13;17.90;99.90
44627;DHT22;30333;52.192;8.834;2023-07-13T19:03:40;17.90;99.90
44627;DHT22;30333;52.192;8.834;2023-07-13T19:08:31;17.80;99.90
44627;DHT22;30333;52.192;8.834;2023-07-13T19:13:27;17.90;99.90
44627;DHT22;30333;52.192;8.834;2023-07-13T19:15:54;17.90;99.90
44627;DHT22;30333;52.192;8.834;2023-07-13T19:18:22;17.90;99.90
44627;DHT22;30333;52.192;8.834;2023-07-13T19:20:50;17.80;99.90
44627;DHT22;30333;52.192;8.834;2023-07-13T19:23:34;17.90;99.90
44627;DHT22;30333;52.192;8.834;2023-07-13T19:26:18;17.80;99.90
44627;DHT22;30333;52.192;8.834;2023-07-13T19:28:45;17.80;99.90
44627;DHT22;30333;52.192;8.834;2023-07-13T19:31:33;17.70;99.90
44627;DHT22;30333;52.192;8.834;2023-07-13T19:36:35;17.60;99.90
44627;DHT22;30333;52.192;8.834;2023-07-13T19:39:01;17.50;99.90
44627;DHT22;30333;52.192;8.834;2023-07-13T19:41:28;17.40;99.90
44627;DHT22;30333;52.192;8.834;2023-07-13T19:43:56;17.40;99.90
44627;DHT22;30333;52.192;8.834;2023-07-13T19:46:36;17.40;99.90
44627;DHT22;30333;52.192;8.834;2023-07-13T19:49:05;17.40;99.90
44627;DHT22;30333;52.192;8.834;2023-07-13T19:51:34;17.40;99.90
44627;DHT22;30333;52.192;8.834;2023-07-13T19:54:14;17.40;99.90
44627;DHT22;30333;52.192;8.834;2023-07-13T19:56:42;17.30;99.90
44627;DHT22;30333;52.192;8.834;2023-07-13T19:59:28;17.30;99.90
44627;DHT22;30333;52.192;8.834;2023-07-13T20:01:54;17.30;99.90
44627;DHT22;30333;52.192;8.834;2023-07-13T20:04:20;17.30;99.90
44627;DHT22;30333;52.192;8.834;2023-07-13T20:09:18;17.10;99.90
44627;DHT22;30333;52.192;8.834;2023-07-13T20:11:44;17.20;99.90
44627;DHT22;30333;52.192;8.834;2023-07-13T20:14:17;17.10;99.90
44627;DHT22;30333;52.192;8.834;2023-07-13T20:16:43;17.10;99.90
44627;DHT22;30333;52.192;8.834;2023-07-13T20:19:13;17.10;99.90
44627;DHT22;30333;52.192;8.834;2023-07-13T20:21:40;17.00;99.90
44627;DHT22;30333;52.192;8.834;2023-07-13T20:24:12;16.90;99.90
44627;DHT22;30333;52.192;8.834;2023-07-13T20:26:40;17.60;99.90
44627;DHT22;30333;52.192;8.834;2023-07-13T20:31:34;16.80;99.90
44627;DHT22;30333;52.192;8.834;2023-07-13T20:34:02;16.80;99.90
44627;DHT22;30333;52.192;8.834;2023-07-13T20:36:28;16.80;99.90
44627;DHT22;30333;52.192;8.834;2023-07-13T20:38:53;16.70;99.90
44627;DHT22;30333;52.192;8.834;2023-07-13T20:41:20;16.70;99.90
44627;DHT22;30333;52.192;8.834;2023-07-13T20:46:15;16.70;99.90
44627;DHT22;30333;52.192;8.834;2023-07-13T20:48:43;16.60;99.90
44627;DHT22;30333;52.192;8.834;2023-07-13T20:51:17;16.60;99.90
44627;DHT22;30333;52.192;8.834;2023-07-13T20:53:44;16.60;99.90
44627;DHT22;30333;52.192;8.834;2023-07-13T20:56:15;16.50;99.90
44627;DHT22;30333;52.192;8.834;2023-07-13T20:58:41;16.50;99.90
44627;DHT22;30333;52.192;8.834;2023-07-13T21:03:44;16.50;99.90
44627;DHT22;30333;52.192;8.834;2023-07-13T21:06:18;16.30;99.90
44627;DHT22;30333;52.192;8.834;2023-07-13T21:08:44;16.30;99.90
44627;DHT22;30333;52.192;8.834;2023-07-13T21:11:10;16.30;99.90
44627;DHT22;30333;52.192;8.834;2023-07-13T21:16:24;16.30;99.90
44627;DHT22;30333;52.192;8.834;2023-07-13T21:18:51;16.30;99.90
44627;DHT22;30333;52.192;8.834;2023-07-13T21:21:19;16.30;99.90
44627;DHT22;30333;52.192;8.834;2023-07-13T21:23:47;16.30;99.90
44627;DHT22;30333;52.192;8.834;2023-07-13T21:28:43;16.30;99.90
44627;DHT22;30333;52.192;8.834;2023-07-13T21:31:30;16.40;99.90
44627;DHT22;30333;52.192;8.834;2023-07-13T21:33:59;16.40;99.90
44627;DHT22;30333;52.192;8.834;2023-07-13T21:36:25;16.40;99.90
44627;DHT22;30333;52.192;8.834;2023-07-13T21:39:00;16.30;99.90
44627;DHT22;30333;52.192;8.834;2023-07-13T21:41:34;16.20;99.90
44627;DHT22;30333;52.192;8.834;2023-07-13T21:44:00;16.20;99.90
44627;DHT22;30333;52.192;8.834;2023-07-13T21:46:28;16.20;99.90
44627;DHT22;30333;52.192;8.834;2023-07-13T21:48:54;16.20;99.90
44627;DHT22;30333;52.192;8.834;2023-07-13T21:51:25;16.10;99.90